ěÝzenÝ letovÚho provozu ╚eskÚ republiky
Letiste: LKPR Aktualizace: 27.02.2020 02:41:26  UTC
 METAR LKPR 27.02. 02:30 ...
METAR LKPR 270230Z 23015KT 9999 FEW028 BKN036 01/M02 Q1003 NOSIG RMK REG QNH 0999=
 TAF LKPR 26.02. 23:00 ...
TAF LKPR 262300Z 2700/2806 23012KT 9999 SCT040      TEMPO 2700/2711 26018KT      TEMPO 2710/2718 -SHRA BKN033      PROB30 TEMPO 2710/2715 8000 SHRA SCT020TCU      BECMG 2716/2718 16005KT      BECMG 2719/2721 7000 -SN BKN015      TEMPO 2722/2803 2500 SN OVC009      BECMG 2721/2800 32010KT      BECMG 2803/2805 9999 NSW SCT033=